sensor_id;sensor_type;location;lat;lon;timestamp;pressure;altitude;pressure_sealevel;temperature;humidity
19005;BME280;9635;52.078;8.648;2023-03-23T00:02:37;99289.22;;;10.20;77.35
19005;BME280;9635;52.078;8.648;2023-03-23T00:07:38;99280.75;;;10.14;77.58
19005;BME280;9635;52.078;8.648;2023-03-23T00:12:47;99275.38;;;10.14;78.15
19005;BME280;9635;52.078;8.648;2023-03-23T00:17:50;99289.69;;;10.15;78.99
19005;BME280;9635;52.078;8.648;2023-03-23T00:22:51;99279.72;;;9.98;80.60
19005;BME280;9635;52.078;8.648;2023-03-23T00:27:54;99270.75;;;9.69;81.73
19005;BME280;9635;52.078;8.648;2023-03-23T00:32:57;99259.78;;;10.28;79.56
19005;BME280;9635;52.078;8.648;2023-03-23T00:37:58;99248.69;;;9.85;80.61
19005;BME280;9635;52.078;8.648;2023-03-23T00:43:02;99263.88;;;10.04;79.87
19005;BME280;9635;52.078;8.648;2023-03-23T00:48:05;99250.94;;;9.80;81.59
19005;BME280;9635;52.078;8.648;2023-03-23T00:53:07;99247.50;;;9.60;82.64
19005;BME280;9635;52.078;8.648;2023-03-23T00:58:11;99241.56;;;9.57;83.13
19005;BME280;9635;52.078;8.648;2023-03-23T01:03:13;99232.38;;;9.69;82.51
19005;BME280;9635;52.078;8.648;2023-03-23T01:08:19;99239.19;;;9.54;82.83
19005;BME280;9635;52.078;8.648;2023-03-23T01:13:23;99236.94;;;9.96;80.85
19005;BME280;9635;52.078;8.648;2023-03-23T01:18:25;99223.66;;;10.22;79.54
19005;BME280;9635;52.078;8.648;2023-03-23T01:23:26;99213.84;;;10.31;79.48
19005;BME280;9635;52.078;8.648;2023-03-23T01:28:30;99209.22;;;10.05;79.15
19005;BME280;9635;52.078;8.648;2023-03-23T01:33:32;99231.78;;;10.12;77.79
19005;BME280;9635;52.078;8.648;2023-03-23T01:38:34;99206.69;;;10.31;78.00
19005;BME280;9635;52.078;8.648;2023-03-23T01:43:57;99211.47;;;10.28;77.78
19005;BME280;9635;52.078;8.648;2023-03-23T01:49:03;99233.97;;;10.27;76.89
19005;BME280;9635;52.078;8.648;2023-03-23T01:54:12;99218.38;;;10.30;76.82
19005;BME280;9635;52.078;8.648;2023-03-23T01:59:22;99193.16;;;10.23;76.59
19005;BME280;9635;52.078;8.648;2023-03-23T02:04:39;99192.16;;;10.24;76.93
19005;BME280;9635;52.078;8.648;2023-03-23T02:09:42;99200.16;;;10.52;75.39
19005;BME280;9635;52.078;8.648;2023-03-23T02:14:45;99195.38;;;10.28;75.77
19005;BME280;9635;52.078;8.648;2023-03-23T02:20:05;99199.41;;;10.59;75.01
19005;BME280;9635;52.078;8.648;2023-03-23T02:25:26;99179.34;;;10.72;74.56
19005;BME280;9635;52.078;8.648;2023-03-23T02:30:43;99189.88;;;10.47;74.39
19005;BME280;9635;52.078;8.648;2023-03-23T02:35:52;99196.47;;;10.53;73.98
19005;BME280;9635;52.078;8.648;2023-03-23T02:40:56;99199.00;;;10.72;73.45
19005;BME280;9635;52.078;8.648;2023-03-23T02:46:04;99179.84;;;10.67;74.69
19005;BME280;9635;52.078;8.648;2023-03-23T02:51:10;99153.59;;;10.25;76.63
19005;BME280;9635;52.078;8.648;2023-03-23T02:56:14;99136.44;;;10.54;75.91
19005;BME280;9635;52.078;8.648;2023-03-23T03:01:48;99137.63;;;10.42;75.45
19005;BME280;9635;52.078;8.648;2023-03-23T03:07:13;99149.59;;;10.47;74.17
19005;BME280;9635;52.078;8.648;2023-03-23T03:12:26;99133.56;;;10.55;73.79
19005;BME280;9635;52.078;8.648;2023-03-23T03:17:32;99140.19;;;10.43;73.53
19005;BME280;9635;52.078;8.648;2023-03-23T03:22:39;99141.63;;;10.37;73.85
19005;BME280;9635;52.078;8.648;2023-03-23T03:27:45;99144.22;;;10.47;72.53
19005;BME280;9635;52.078;8.648;2023-03-23T03:32:56;99132.59;;;10.21;72.93
19005;BME280;9635;52.078;8.648;2023-03-23T03:38:06;99117.69;;;10.44;72.82
19005;BME280;9635;52.078;8.648;2023-03-23T03:43:09;99113.72;;;10.30;72.89
19005;BME280;9635;52.078;8.648;2023-03-23T03:48:11;99107.41;;;10.04;74.32
19005;BME280;9635;52.078;8.648;2023-03-23T03:53:14;99086.50;;;10.25;74.04
19005;BME280;9635;52.078;8.648;2023-03-23T03:58:18;99094.22;;;10.64;72.34
19005;BME280;9635;52.078;8.648;2023-03-23T04:03:38;99103.19;;;10.55;72.43
19005;BME280;9635;52.078;8.648;2023-03-23T04:08:49;99105.91;;;10.37;72.92
19005;BME280;9635;52.078;8.648;2023-03-23T04:13:51;99096.56;;;10.23;73.47
19005;BME280;9635;52.078;8.648;2023-03-23T04:18:55;99108.09;;;10.59;72.56
19005;BME280;9635;52.078;8.648;2023-03-23T04:24:01;99107.13;;;10.43;73.21
19005;BME280;9635;52.078;8.648;2023-03-23T04:29:03;99113.56;;;10.32;72.73
19005;BME280;9635;52.078;8.648;2023-03-23T04:34:09;99100.50;;;10.73;71.19
19005;BME280;9635;52.078;8.648;2023-03-23T04:39:19;99115.41;;;10.67;71.44
19005;BME280;9635;52.078;8.648;2023-03-23T04:44:21;99113.41;;;10.51;71.65
19005;BME280;9635;52.078;8.648;2023-03-23T04:49:35;99131.97;;;10.63;71.53
19005;BME280;9635;52.078;8.648;2023-03-23T04:54:55;99120.66;;;10.77;70.94
19005;BME280;9635;52.078;8.648;2023-03-23T04:59:57;99119.63;;;10.52;71.19
19005;BME280;9635;52.078;8.648;2023-03-23T05:05:13;99129.34;;;10.53;71.19
19005;BME280;9635;52.078;8.648;2023-03-23T05:10:17;99127.97;;;10.49;71.20
19005;BME280;9635;52.078;8.648;2023-03-23T05:15:21;99128.97;;;10.66;70.62
19005;BME280;9635;52.078;8.648;2023-03-23T05:20:23;99123.25;;;10.87;69.87
19005;BME280;9635;52.078;8.648;2023-03-23T05:25:33;99120.00;;;10.57;70.50
19005;BME280;9635;52.078;8.648;2023-03-23T05:30:41;99115.13;;;10.78;69.63
19005;BME280;9635;52.078;8.648;2023-03-23T05:35:46;99120.81;;;10.75;69.62
19005;BME280;9635;52.078;8.648;2023-03-23T05:40:52;99108.19;;;10.94;68.79
19005;BME280;9635;52.078;8.648;2023-03-23T05:46:01;99104.72;;;10.75;69.33
19005;BME280;9635;52.078;8.648;2023-03-23T05:51:05;99090.84;;;10.88;69.17
19005;BME280;9635;52.078;8.648;2023-03-23T05:56:14;99109.84;;;10.69;69.54
19005;BME280;9635;52.078;8.648;2023-03-23T06:01:35;99118.22;;;10.66;69.82
19005;BME280;9635;52.078;8.648;2023-03-23T06:06:37;99119.06;;;10.66;70.30
19005;BME280;9635;52.078;8.648;2023-03-23T06:11:45;99119.28;;;10.73;70.14
19005;BME280;9635;52.078;8.648;2023-03-23T06:17:11;99128.06;;;11.01;69.09
19005;BME280;9635;52.078;8.648;2023-03-23T06:22:13;99137.28;;;10.80;69.75
19005;BME280;9635;52.078;8.648;2023-03-23T06:27:37;99133.44;;;11.01;69.43
19005;BME280;9635;52.078;8.648;2023-03-23T06:32:38;99140.84;;;10.81;69.54
19005;BME280;9635;52.078;8.648;2023-03-23T06:37:45;99152.31;;;10.91;69.58
19005;BME280;9635;52.078;8.648;2023-03-23T06:42:58;99157.53;;;10.93;69.68
19005;BME280;9635;52.078;8.648;2023-03-23T06:48:20;99142.13;;;10.77;70.14
19005;BME280;9635;52.078;8.648;2023-03-23T06:53:23;99152.28;;;11.09;69.27
19005;BME280;9635;52.078;8.648;2023-03-23T06:58:29;99151.22;;;11.20;68.66
19005;BME280;9635;52.078;8.648;2023-03-23T07:03:31;99161.19;;;11.10;69.01
19005;BME280;9635;52.078;8.648;2023-03-23T07:08:34;99164.34;;;11.57;67.28
19005;BME280;9635;52.078;8.648;2023-03-23T07:13:40;99156.47;;;11.30;67.78
19005;BME280;9635;52.078;8.648;2023-03-23T07:18:43;99161.28;;;11.44;68.15
19005;BME280;9635;52.078;8.648;2023-03-23T07:23:45;99162.72;;;11.30;67.77
19005;BME280;9635;52.078;8.648;2023-03-23T07:28:56;99148.00;;;11.42;68.09
19005;BME280;9635;52.078;8.648;2023-03-23T07:34:04;99158.25;;;11.81;66.65
19005;BME280;9635;52.078;8.648;2023-03-23T07:39:25;99164.84;;;11.53;66.75
19005;BME280;9635;52.078;8.648;2023-03-23T07:44:31;99166.75;;;11.60;67.14
19005;BME280;9635;52.078;8.648;2023-03-23T07:49:40;99206.50;;;11.22;67.59
19005;BME280;9635;52.078;8.648;2023-03-23T07:54:55;99172.16;;;11.68;66.94
19005;BME280;9635;52.078;8.648;2023-03-23T08:00:11;99181.47;;;11.82;66.52
19005;BME280;9635;52.078;8.648;2023-03-23T08:05:16;99173.81;;;11.61;67.26
19005;BME280;9635;52.078;8.648;2023-03-23T08:10:37;99199.63;;;11.54;67.32
19005;BME280;9635;52.078;8.648;2023-03-23T08:16:07;99190.13;;;11.34;69.17
19005;BME280;9635;52.078;8.648;2023-03-23T08:21:42;99180.41;;;11.75;68.07
19005;BME280;9635;52.078;8.648;2023-03-23T08:27:11;99180.16;;;11.52;68.75
19005;BME280;9635;52.078;8.648;2023-03-23T08:32:16;99223.97;;;11.44;69.56
19005;BME280;9635;52.078;8.648;2023-03-23T08:37:41;99185.34;;;11.54;68.23
19005;BME280;9635;52.078;8.648;2023-03-23T08:42:54;99193.84;;;11.41;67.80
19005;BME280;9635;52.078;8.648;2023-03-23T08:48:16;99186.28;;;12.13;65.42
19005;BME280;9635;52.078;8.648;2023-03-23T08:53:38;99191.94;;;11.93;65.07
19005;BME280;9635;52.078;8.648;2023-03-23T08:59:00;99178.13;;;12.39;64.17
19005;BME280;9635;52.078;8.648;2023-03-23T09:04:30;99196.63;;;11.91;64.46
19005;BME280;9635;52.078;8.648;2023-03-23T09:09:47;99212.94;;;11.90;64.79
19005;BME280;9635;52.078;8.648;2023-03-23T09:14:49;99208.38;;;11.82;63.99
19005;BME280;9635;52.078;8.648;2023-03-23T09:19:52;99212.84;;;12.08;63.74
19005;BME280;9635;52.078;8.648;2023-03-23T09:24:54;99213.66;;;12.34;62.58
19005;BME280;9635;52.078;8.648;2023-03-23T09:29:56;99222.41;;;12.45;62.23
19005;BME280;9635;52.078;8.648;2023-03-23T09:35:00;99230.53;;;12.69;61.76
19005;BME280;9635;52.078;8.648;2023-03-23T09:40:03;99241.31;;;12.77;61.40
19005;BME280;9635;52.078;8.648;2023-03-23T09:45:12;99238.41;;;12.12;62.39
19005;BME280;9635;52.078;8.648;2023-03-23T09:50:21;99252.59;;;12.22;61.19
19005;BME280;9635;52.078;8.648;2023-03-23T09:55:24;99265.00;;;12.49;61.12
19005;BME280;9635;52.078;8.648;2023-03-23T10:00:30;99254.63;;;12.63;61.06
19005;BME280;9635;52.078;8.648;2023-03-23T10:05:36;99241.78;;;12.48;61.14
19005;BME280;9635;52.078;8.648;2023-03-23T10:10:46;99252.56;;;12.14;61.50
19005;BME280;9635;52.078;8.648;2023-03-23T10:15:50;99250.28;;;13.19;59.72
19005;BME280;9635;52.078;8.648;2023-03-23T10:20:55;99238.34;;;13.38;58.01
19005;BME280;9635;52.078;8.648;2023-03-23T10:26:02;99248.16;;;13.94;56.08
19005;BME280;9635;52.078;8.648;2023-03-23T10:31:09;99254.66;;;13.36;57.68
19005;BME280;9635;52.078;8.648;2023-03-23T10:36:18;99259.34;;;13.83;56.32
19005;BME280;9635;52.078;8.648;2023-03-23T10:41:21;99227.00;;;13.67;55.78
19005;BME280;9635;52.078;8.648;2023-03-23T10:46:29;99233.38;;;14.22;55.45
19005;BME280;9635;52.078;8.648;2023-03-23T10:51:37;99260.47;;;14.36;54.78
19005;BME280;9635;52.078;8.648;2023-03-23T10:56:40;99250.28;;;13.19;56.98
19005;BME280;9635;52.078;8.648;2023-03-23T11:01:44;99314.94;;;11.31;62.02
19005;BME280;9635;52.078;8.648;2023-03-23T11:06:52;99332.56;;;8.00;89.85
19005;BME280;9635;52.078;8.648;2023-03-23T11:11:55;99332.38;;;8.22;90.19
19005;BME280;9635;52.078;8.648;2023-03-23T11:16:58;99329.41;;;8.46;89.54
19005;BME280;9635;52.078;8.648;2023-03-23T11:22:08;99363.53;;;8.64;88.48
19005;BME280;9635;52.078;8.648;2023-03-23T11:27:10;99350.06;;;8.44;89.11
19005;BME280;9635;52.078;8.648;2023-03-23T11:32:14;99340.28;;;8.24;89.37
19005;BME280;9635;52.078;8.648;2023-03-23T11:37:21;99337.19;;;8.59;87.39
19005;BME280;9635;52.078;8.648;2023-03-23T11:42:25;99371.47;;;8.44;86.59
19005;BME280;9635;52.078;8.648;2023-03-23T11:47:35;99366.44;;;9.01;87.05
19005;BME280;9635;52.078;8.648;2023-03-23T11:52:44;99367.72;;;9.06;83.56
19005;BME280;9635;52.078;8.648;2023-03-23T11:57:48;99372.38;;;9.14;81.73
19005;BME280;9635;52.078;8.648;2023-03-23T12:03:31;99393.66;;;9.06;82.33
19005;BME280;9635;52.078;8.648;2023-03-23T12:08:55;99385.47;;;8.98;81.74
19005;BME280;9635;52.078;8.648;2023-03-23T12:14:10;99359.38;;;8.90;80.66
19005;BME280;9635;52.078;8.648;2023-03-23T12:19:19;99369.94;;;8.82;80.20
19005;BME280;9635;52.078;8.648;2023-03-23T12:24:37;99365.00;;;8.87;79.52
19005;BME280;9635;52.078;8.648;2023-03-23T12:29:51;99370.81;;;9.02;78.62
19005;BME280;9635;52.078;8.648;2023-03-23T12:35:01;99364.31;;;9.43;77.28
19005;BME280;9635;52.078;8.648;2023-03-23T12:40:30;99367.88;;;9.34;77.88
19005;BME280;9635;52.078;8.648;2023-03-23T12:45:49;99379.19;;;8.68;81.83
19005;BME280;9635;52.078;8.648;2023-03-23T12:51:09;99370.25;;;9.08;80.71
19005;BME280;9635;52.078;8.648;2023-03-23T12:56:18;99355.75;;;9.11;81.21
19005;BME280;9635;52.078;8.648;2023-03-23T13:01:25;99371.25;;;9.46;81.44
19005;BME280;9635;52.078;8.648;2023-03-23T13:06:32;99375.19;;;9.51;81.33
19005;BME280;9635;52.078;8.648;2023-03-23T13:11:38;99376.03;;;9.91;79.30
19005;BME280;9635;52.078;8.648;2023-03-23T13:16:47;99373.31;;;10.01;76.94
19005;BME280;9635;52.078;8.648;2023-03-23T13:21:57;99381.81;;;9.77;79.28
19005;BME280;9635;52.078;8.648;2023-03-23T13:27:02;99368.41;;;9.86;80.62
19005;BME280;9635;52.078;8.648;2023-03-23T13:32:06;99354.13;;;10.33;81.31
19005;BME280;9635;52.078;8.648;2023-03-23T13:37:20;99353.50;;;10.49;81.49
19005;BME280;9635;52.078;8.648;2023-03-23T13:42:26;99357.16;;;11.03;82.16
19005;BME280;9635;52.078;8.648;2023-03-23T13:47:36;99343.38;;;13.56;72.35
19005;BME280;9635;52.078;8.648;2023-03-23T13:52:49;99341.84;;;13.69;70.67
19005;BME280;9635;52.078;8.648;2023-03-23T13:57:53;99341.00;;;11.75;74.20
19005;BME280;9635;52.078;8.648;2023-03-23T14:03:00;99345.22;;;10.88;79.42
19005;BME280;9635;52.078;8.648;2023-03-23T14:08:11;99352.84;;;11.46;77.07
19005;BME280;9635;52.078;8.648;2023-03-23T14:13:20;99342.91;;;11.20;77.74
19005;BME280;9635;52.078;8.648;2023-03-23T14:18:25;99363.22;;;10.77;79.18
19005;BME280;9635;52.078;8.648;2023-03-23T14:23:30;99355.88;;;10.52;78.98
19005;BME280;9635;52.078;8.648;2023-03-23T14:28:38;99374.47;;;10.63;78.87
19005;BME280;9635;52.078;8.648;2023-03-23T14:33:40;99367.75;;;10.49;78.79
19005;BME280;9635;52.078;8.648;2023-03-23T14:38:42;99366.19;;;10.84;77.35
19005;BME280;9635;52.078;8.648;2023-03-23T14:43:46;99365.25;;;10.93;77.40
19005;BME280;9635;52.078;8.648;2023-03-23T14:48:49;99353.63;;;10.75;77.53
19005;BME280;9635;52.078;8.648;2023-03-23T14:53:52;99357.00;;;11.40;75.60
19005;BME280;9635;52.078;8.648;2023-03-23T14:59:02;99363.03;;;11.52;74.70
19005;BME280;9635;52.078;8.648;2023-03-23T15:04:08;99329.06;;;12.03;72.62
19005;BME280;9635;52.078;8.648;2023-03-23T15:09:13;99336.44;;;13.61;70.30
19005;BME280;9635;52.078;8.648;2023-03-23T15:14:20;99352.28;;;13.40;67.50
19005;BME280;9635;52.078;8.648;2023-03-23T15:19:25;99359.19;;;13.91;64.75
19005;BME280;9635;52.078;8.648;2023-03-23T15:24:33;99354.84;;;13.82;66.04
19005;BME280;9635;52.078;8.648;2023-03-23T15:29:49;99365.09;;;12.71;67.95
19005;BME280;9635;52.078;8.648;2023-03-23T15:34:51;99365.56;;;12.06;71.46
19005;BME280;9635;52.078;8.648;2023-03-23T15:39:54;99368.00;;;11.91;71.42
19005;BME280;9635;52.078;8.648;2023-03-23T15:45:16;99334.88;;;11.90;70.83
19005;BME280;9635;52.078;8.648;2023-03-23T15:50:33;99328.19;;;11.50;72.04
19005;BME280;9635;52.078;8.648;2023-03-23T15:55:37;99325.16;;;11.71;71.27
19005;BME280;9635;52.078;8.648;2023-03-23T16:00:41;99313.75;;;11.52;71.93
19005;BME280;9635;52.078;8.648;2023-03-23T16:05:45;99304.97;;;11.93;70.91
19005;BME280;9635;52.078;8.648;2023-03-23T16:10:48;99307.16;;;11.98;70.94
19005;BME280;9635;52.078;8.648;2023-03-23T16:15:52;99308.97;;;11.89;70.79
19005;BME280;9635;52.078;8.648;2023-03-23T16:20:56;99333.81;;;11.83;71.46
19005;BME280;9635;52.078;8.648;2023-03-23T16:25:58;99319.03;;;11.87;71.75
19005;BME280;9635;52.078;8.648;2023-03-23T16:31:03;99323.25;;;11.64;72.26
19005;BME280;9635;52.078;8.648;2023-03-23T16:36:08;99326.91;;;11.81;71.56
19005;BME280;9635;52.078;8.648;2023-03-23T16:41:12;99317.16;;;11.80;72.23
19005;BME280;9635;52.078;8.648;2023-03-23T16:46:16;99300.69;;;11.83;70.57
19005;BME280;9635;52.078;8.648;2023-03-23T16:51:19;99293.03;;;11.70;70.93
19005;BME280;9635;52.078;8.648;2023-03-23T16:56:22;99296.78;;;11.77;71.28
19005;BME280;9635;52.078;8.648;2023-03-23T17:01:26;99329.78;;;11.61;72.29
19005;BME280;9635;52.078;8.648;2023-03-23T17:06:29;99325.88;;;11.56;72.86
19005;BME280;9635;52.078;8.648;2023-03-23T17:11:32;99331.19;;;11.47;73.27
19005;BME280;9635;52.078;8.648;2023-03-23T17:16:36;99328.97;;;11.43;73.82
19005;BME280;9635;52.078;8.648;2023-03-23T17:21:41;99306.94;;;11.65;73.14
19005;BME280;9635;52.078;8.648;2023-03-23T17:26:43;99332.09;;;11.56;73.44
19005;BME280;9635;52.078;8.648;2023-03-23T17:31:48;99334.63;;;11.04;75.10
19005;BME280;9635;52.078;8.648;2023-03-23T17:36:51;99337.22;;;11.41;73.91
19005;BME280;9635;52.078;8.648;2023-03-23T17:41:53;99347.41;;;11.56;73.91
19005;BME280;9635;52.078;8.648;2023-03-23T17:46:58;99361.72;;;11.38;74.58
19005;BME280;9635;52.078;8.648;2023-03-23T17:52:01;99378.78;;;11.01;75.98
19005;BME280;9635;52.078;8.648;2023-03-23T17:57:04;99387.34;;;11.50;74.36
19005;BME280;9635;52.078;8.648;2023-03-23T18:02:09;99372.00;;;11.61;73.78
19005;BME280;9635;52.078;8.648;2023-03-23T18:07:16;99370.28;;;11.78;73.12
19005;BME280;9635;52.078;8.648;2023-03-23T18:12:23;99370.97;;;11.80;73.12
19005;BME280;9635;52.078;8.648;2023-03-23T18:17:28;99372.97;;;11.78;73.40
19005;BME280;9635;52.078;8.648;2023-03-23T18:22:30;99363.44;;;11.65;73.64
19005;BME280;9635;52.078;8.648;2023-03-23T18:27:33;99357.59;;;11.70;73.60
19005;BME280;9635;52.078;8.648;2023-03-23T18:32:38;99361.06;;;11.62;73.37
19005;BME280;9635;52.078;8.648;2023-03-23T18:37:41;99348.56;;;11.53;73.48
19005;BME280;9635;52.078;8.648;2023-03-23T18:42:44;99347.59;;;11.36;73.88
19005;BME280;9635;52.078;8.648;2023-03-23T18:47:48;99344.41;;;11.41;73.45
19005;BME280;9635;52.078;8.648;2023-03-23T18:52:54;99345.81;;;11.45;72.96
19005;BME280;9635;52.078;8.648;2023-03-23T18:57:57;99342.53;;;11.33;73.18
19005;BME280;9635;52.078;8.648;2023-03-23T19:03:02;99335.13;;;11.35;72.99
19005;BME280;9635;52.078;8.648;2023-03-23T19:08:07;99319.94;;;11.44;72.82
19005;BME280;9635;52.078;8.648;2023-03-23T19:13:10;99318.28;;;11.51;72.86
19005;BME280;9635;52.078;8.648;2023-03-23T19:18:14;99319.00;;;11.35;73.31
19005;BME280;9635;52.078;8.648;2023-03-23T19:23:17;99307.94;;;11.38;73.22
19005;BME280;9635;52.078;8.648;2023-03-23T19:28:20;99310.72;;;11.28;73.62
19005;BME280;9635;52.078;8.648;2023-03-23T19:33:44;99296.41;;;11.10;74.18
19005;BME280;9635;52.078;8.648;2023-03-23T19:38:47;99290.63;;;11.05;74.06
19005;BME280;9635;52.078;8.648;2023-03-23T19:43:50;99281.97;;;10.93;74.49
19005;BME280;9635;52.078;8.648;2023-03-23T19:48:54;99266.38;;;10.97;73.88
19005;BME280;9635;52.078;8.648;2023-03-23T19:53:57;99267.25;;;10.97;73.29
19005;BME280;9635;52.078;8.648;2023-03-23T19:59:01;99268.28;;;11.04;72.45
19005;BME280;9635;52.078;8.648;2023-03-23T20:04:07;99267.91;;;10.99;72.03
19005;BME280;9635;52.078;8.648;2023-03-23T20:09:10;99267.06;;;10.99;71.58
19005;BME280;9635;52.078;8.648;2023-03-23T20:14:12;99269.00;;;11.06;71.02
19005;BME280;9635;52.078;8.648;2023-03-23T20:19:17;99266.69;;;11.12;70.35
19005;BME280;9635;52.078;8.648;2023-03-23T20:24:20;99269.13;;;11.05;70.01
19005;BME280;9635;52.078;8.648;2023-03-23T20:29:22;99259.03;;;11.17;69.23
19005;BME280;9635;52.078;8.648;2023-03-23T20:34:27;99247.50;;;11.06;68.90
19005;BME280;9635;52.078;8.648;2023-03-23T20:39:32;99251.72;;;10.91;69.04
19005;BME280;9635;52.078;8.648;2023-03-23T20:44:37;99246.28;;;11.01;68.35
19005;BME280;9635;52.078;8.648;2023-03-23T20:49:42;99250.88;;;11.09;67.88
19005;BME280;9635;52.078;8.648;2023-03-23T20:54:54;99236.69;;;10.98;67.99
19005;BME280;9635;52.078;8.648;2023-03-23T20:59:57;99224.31;;;10.88;68.10
19005;BME280;9635;52.078;8.648;2023-03-23T21:05:01;99228.56;;;10.90;67.53
19005;BME280;9635;52.078;8.648;2023-03-23T21:10:05;99218.31;;;10.94;67.53
19005;BME280;9635;52.078;8.648;2023-03-23T21:15:08;99216.09;;;11.07;66.83
19005;BME280;9635;52.078;8.648;2023-03-23T21:20:13;99206.28;;;10.98;67.10
19005;BME280;9635;52.078;8.648;2023-03-23T21:25:16;99201.06;;;10.96;67.06
19005;BME280;9635;52.078;8.648;2023-03-23T21:30:34;99209.28;;;10.95;67.13
19005;BME280;9635;52.078;8.648;2023-03-23T21:35:39;99195.91;;;11.03;66.65
19005;BME280;9635;52.078;8.648;2023-03-23T21:40:43;99186.97;;;10.94;66.67
19005;BME280;9635;52.078;8.648;2023-03-23T21:45:46;99191.53;;;11.02;66.27
19005;BME280;9635;52.078;8.648;2023-03-23T21:50:50;99193.84;;;11.15;65.95
19005;BME280;9635;52.078;8.648;2023-03-23T21:55:53;99185.78;;;11.15;65.78
19005;BME280;9635;52.078;8.648;2023-03-23T22:00:56;99168.56;;;11.25;65.63
19005;BME280;9635;52.078;8.648;2023-03-23T22:06:08;99158.13;;;11.22;65.46
19005;BME280;9635;52.078;8.648;2023-03-23T22:11:13;99154.31;;;11.33;65.23
19005;BME280;9635;52.078;8.648;2023-03-23T22:16:17;99144.25;;;11.35;65.16
19005;BME280;9635;52.078;8.648;2023-03-23T22:21:23;99130.78;;;11.35;65.07
19005;BME280;9635;52.078;8.648;2023-03-23T22:26:28;99128.16;;;11.43;64.88
19005;BME280;9635;52.078;8.648;2023-03-23T22:31:33;99117.56;;;11.42;64.69
19005;BME280;9635;52.078;8.648;2023-03-23T22:36:38;99099.59;;;11.42;64.75
19005;BME280;9635;52.078;8.648;2023-03-23T22:41:41;99102.00;;;11.54;64.51
19005;BME280;9635;52.078;8.648;2023-03-23T22:46:44;99085.66;;;11.47;64.52
19005;BME280;9635;52.078;8.648;2023-03-23T22:51:49;99070.22;;;11.57;64.19
19005;BME280;9635;52.078;8.648;2023-03-23T22:56:52;99060.34;;;11.58;64.24
19005;BME280;9635;52.078;8.648;2023-03-23T23:01:54;99060.19;;;11.67;63.86
19005;BME280;9635;52.078;8.648;2023-03-23T23:06:59;99056.69;;;11.75;63.55
19005;BME280;9635;52.078;8.648;2023-03-23T23:12:13;99059.03;;;11.78;64.46
19005;BME280;9635;52.078;8.648;2023-03-23T23:17:17;99051.00;;;11.10;67.37
19005;BME280;9635;52.078;8.648;2023-03-23T23:22:21;99054.53;;;11.10;68.92
19005;BME280;9635;52.078;8.648;2023-03-23T23:27:24;99050.72;;;11.13;70.27
19005;BME280;9635;52.078;8.648;2023-03-23T23:32:27;99045.13;;;11.06;71.58
19005;BME280;9635;52.078;8.648;2023-03-23T23:37:31;99042.28;;;10.81;72.53
19005;BME280;9635;52.078;8.648;2023-03-23T23:42:34;99053.44;;;10.69;73.73
19005;BME280;9635;52.078;8.648;2023-03-23T23:47:38;99039.44;;;10.83;74.01
19005;BME280;9635;52.078;8.648;2023-03-23T23:52:42;99035.03;;;10.74;74.87
19005;BME280;9635;52.078;8.648;2023-03-23T23:57:47;99036.44;;;10.60;76.33
